sensor_id;sensor_type;location;lat;lon;timestamp;pressure;altitude;pressure_sealevel;temperature;humidity
71643;BME280;59438;45.014;39.006;2022-07-23T00:00:43;100867.53;;;18.14;79.95
71643;BME280;59438;45.014;39.006;2022-07-23T00:03:10;100875.50;;;18.14;79.46
71643;BME280;59438;45.014;39.006;2022-07-23T00:05:36;100877.22;;;18.15;79.62
71643;BME280;59438;45.014;39.006;2022-07-23T00:08:03;100862.22;;;18.14;79.58
71643;BME280;59438;45.014;39.006;2022-07-23T00:10:29;100863.91;;;18.15;79.66
71643;BME280;59438;45.014;39.006;2022-07-23T00:12:56;100858.59;;;18.15;79.50
71643;BME280;59438;45.014;39.006;2022-07-23T00:15:22;100865.72;;;18.15;79.51
71643;BME280;59438;45.014;39.006;2022-07-23T00:17:50;100860.31;;;18.16;80.00
71643;BME280;59438;45.014;39.006;2022-07-23T00:20:16;100847.97;;;18.15;79.51
71643;BME280;59438;45.014;39.006;2022-07-23T00:22:46;100840.84;;;18.16;80.51
71643;BME280;59438;45.014;39.006;2022-07-23T00:25:13;100860.31;;;18.16;79.62
71643;BME280;59438;45.014;39.006;2022-07-23T00:27:39;100873.69;;;18.15;79.65
71643;BME280;59438;45.014;39.006;2022-07-23T00:30:07;100864.88;;;18.14;79.89
71643;BME280;59438;45.014;39.006;2022-07-23T00:32:45;100862.09;;;18.16;80.90
71643;BME280;59438;45.014;39.006;2022-07-23T00:35:13;100846.28;;;18.14;80.26
71643;BME280;59438;45.014;39.006;2022-07-23T00:37:39;100844.47;;;18.15;80.05
71643;BME280;59438;45.014;39.006;2022-07-23T00:40:07;100831.16;;;18.15;80.39
71643;BME280;59438;45.014;39.006;2022-07-23T00:42:33;100837.13;;;18.18;80.16
71643;BME280;59438;45.014;39.006;2022-07-23T00:44:59;100824.59;;;18.20;80.17
71643;BME280;59438;45.014;39.006;2022-07-23T00:47:26;100836.91;;;18.21;80.46
71643;BME280;59438;45.014;39.006;2022-07-23T00:49:52;100831.50;;;18.23;80.27
71643;BME280;59438;45.014;39.006;2022-07-23T00:52:20;100826.19;;;18.23;80.90
71643;BME280;59438;45.014;39.006;2022-07-23T00:54:46;100822.69;;;18.22;80.43
71643;BME280;59438;45.014;39.006;2022-07-23T00:57:13;100825.53;;;18.19;80.39
71643;BME280;59438;45.014;39.006;2022-07-23T00:59:40;100828.19;;;18.19;80.49
71643;BME280;59438;45.014;39.006;2022-07-23T01:02:07;100821.19;;;18.18;80.56
71643;BME280;59438;45.014;39.006;2022-07-23T01:04:33;100824.78;;;18.17;80.67
71643;BME280;59438;45.014;39.006;2022-07-23T01:07:00;100822.13;;;18.17;80.73
71643;BME280;59438;45.014;39.006;2022-07-23T01:09:28;100817.78;;;18.16;81.00
71643;BME280;59438;45.014;39.006;2022-07-23T01:11:55;100813.41;;;18.15;80.72
71643;BME280;59438;45.014;39.006;2022-07-23T01:14:21;100808.09;;;18.15;80.55
71643;BME280;59438;45.014;39.006;2022-07-23T01:16:49;100812.56;;;18.15;80.77
71643;BME280;59438;45.014;39.006;2022-07-23T01:19:16;100810.84;;;18.13;80.75
71643;BME280;59438;45.014;39.006;2022-07-23T01:21:44;100809.06;;;18.14;80.94
71643;BME280;59438;45.014;39.006;2022-07-23T01:24:12;100809.06;;;18.14;80.86
71643;BME280;59438;45.014;39.006;2022-07-23T01:26:40;100825.94;;;18.13;80.95
71643;BME280;59438;45.014;39.006;2022-07-23T01:29:07;100808.31;;;18.12;80.58
71643;BME280;59438;45.014;39.006;2022-07-23T01:31:33;100811.81;;;18.12;80.73
71643;BME280;59438;45.014;39.006;2022-07-23T01:33:59;100818.06;;;18.11;80.79
71643;BME280;59438;45.014;39.006;2022-07-23T01:36:26;100810.09;;;18.11;80.67
71643;BME280;59438;45.014;39.006;2022-07-23T01:38:53;100811.91;;;18.11;80.75
71643;BME280;59438;45.014;39.006;2022-07-23T01:41:20;100811.16;;;18.09;81.10
71643;BME280;59438;45.014;39.006;2022-07-23T01:43:47;100819.22;;;18.07;80.72
71643;BME280;59438;45.014;39.006;2022-07-23T01:46:14;100823.69;;;18.07;81.03
71643;BME280;59438;45.014;39.006;2022-07-23T01:48:40;100819.34;;;18.06;80.87
71643;BME280;59438;45.014;39.006;2022-07-23T01:51:07;100812.41;;;18.03;80.94
71643;BME280;59438;45.014;39.006;2022-07-23T01:53:34;100816.97;;;18.01;80.92
71643;BME280;59438;45.014;39.006;2022-07-23T01:56:00;100815.19;;;18.02;81.16
71643;BME280;59438;45.014;39.006;2022-07-23T01:58:29;100819.75;;;18.00;81.52
71643;BME280;59438;45.014;39.006;2022-07-23T02:00:55;100820.69;;;17.99;80.97
71643;BME280;59438;45.014;39.006;2022-07-23T02:03:22;100822.19;;;18.03;81.26
71643;BME280;59438;45.014;39.006;2022-07-23T02:05:48;100825.59;;;18.05;81.42
71643;BME280;59438;45.014;39.006;2022-07-23T02:08:15;100822.75;;;18.08;81.91
71643;BME280;59438;45.014;39.006;2022-07-23T02:10:41;100823.50;;;18.10;81.52
71643;BME280;59438;45.014;39.006;2022-07-23T02:13:08;100814.47;;;18.12;81.50
71643;BME280;59438;45.014;39.006;2022-07-23T02:15:36;100822.44;;;18.12;81.73
71643;BME280;59438;45.014;39.006;2022-07-23T02:18:02;100818.81;;;18.13;81.30
71643;BME280;59438;45.014;39.006;2022-07-23T02:20:28;100811.72;;;18.14;81.20
71643;BME280;59438;45.014;39.006;2022-07-23T02:22:55;100806.81;;;18.08;81.19
71643;BME280;59438;45.014;39.006;2022-07-23T02:25:21;100816.91;;;18.16;81.31
71643;BME280;59438;45.014;39.006;2022-07-23T02:27:48;100832.75;;;18.17;81.36
71643;BME280;59438;45.014;39.006;2022-07-23T02:30:14;100834.47;;;18.18;81.27
71643;BME280;59438;45.014;39.006;2022-07-23T02:32:42;100822.78;;;18.21;81.81
71643;BME280;59438;45.014;39.006;2022-07-23T02:35:08;100831.50;;;18.23;81.34
71643;BME280;59438;45.014;39.006;2022-07-23T02:37:35;100823.44;;;18.24;81.36
71643;BME280;59438;45.014;39.006;2022-07-23T02:40:01;100824.19;;;18.26;81.20
71643;BME280;59438;45.014;39.006;2022-07-23T02:42:27;100826.94;;;18.25;81.14
71643;BME280;59438;45.014;39.006;2022-07-23T02:44:53;100834.81;;;18.26;81.08
71643;BME280;59438;45.014;39.006;2022-07-23T02:47:20;100826.94;;;18.25;81.05
71643;BME280;59438;45.014;39.006;2022-07-23T02:49:48;100821.63;;;18.25;81.32
71643;BME280;59438;45.014;39.006;2022-07-23T02:52:14;100826.09;;;18.24;81.10
71643;BME280;59438;45.014;39.006;2022-07-23T02:54:40;100835.84;;;18.24;80.98
71643;BME280;59438;45.014;39.006;2022-07-23T02:57:07;100832.34;;;18.23;81.01
71643;BME280;59438;45.014;39.006;2022-07-23T02:59:33;100828.84;;;18.23;81.28
71643;BME280;59438;45.014;39.006;2022-07-23T03:01:59;100832.44;;;18.22;81.25
71643;BME280;59438;45.014;39.006;2022-07-23T03:04:26;100835.75;;;18.25;81.23
71643;BME280;59438;45.014;39.006;2022-07-23T03:06:53;100835.66;;;18.27;81.81
71643;BME280;59438;45.014;39.006;2022-07-23T03:09:20;100836.31;;;18.30;81.36
71643;BME280;59438;45.014;39.006;2022-07-23T03:11:46;100830.78;;;18.33;81.21
71643;BME280;59438;45.014;39.006;2022-07-23T03:14:12;100827.06;;;18.36;81.06
71643;BME280;59438;45.014;39.006;2022-07-23T03:16:39;100838.34;;;18.40;81.21
71643;BME280;59438;45.014;39.006;2022-07-23T03:19:05;100841.84;;;18.40;81.19
71643;BME280;59438;45.014;39.006;2022-07-23T03:21:31;100825.03;;;18.40;81.21
71643;BME280;59438;45.014;39.006;2022-07-23T03:23:59;100825.88;;;18.40;81.13
71643;BME280;59438;45.014;39.006;2022-07-23T03:26:26;100819.63;;;18.41;80.74
71643;BME280;59438;45.014;39.006;2022-07-23T03:28:52;100817.81;;;18.42;80.88
71643;BME280;59438;45.014;39.006;2022-07-23T03:31:18;100818.56;;;18.44;80.84
71643;BME280;59438;45.014;39.006;2022-07-23T03:33:45;100816.75;;;18.44;80.89
71643;BME280;59438;45.014;39.006;2022-07-23T03:36:11;100821.00;;;18.47;80.74
71643;BME280;59438;45.014;39.006;2022-07-23T03:38:38;100822.72;;;18.48;80.80
71643;BME280;59438;45.014;39.006;2022-07-23T03:41:05;100816.56;;;18.47;81.01
71643;BME280;59438;45.014;39.006;2022-07-23T03:43:32;100820.91;;;18.48;80.67
71643;BME280;59438;45.014;39.006;2022-07-23T03:45:59;100821.75;;;18.49;80.74
71643;BME280;59438;45.014;39.006;2022-07-23T03:48:25;100820.06;;;18.48;80.64
71643;BME280;59438;45.014;39.006;2022-07-23T03:50:51;100821.53;;;18.52;80.80
71643;BME280;59438;45.014;39.006;2022-07-23T03:53:18;100822.28;;;18.54;80.86
71643;BME280;59438;45.014;39.006;2022-07-23T03:55:44;100823.03;;;18.56;80.74
71643;BME280;59438;45.014;39.006;2022-07-23T03:58:12;100821.97;;;18.59;81.27
71643;BME280;59438;45.014;39.006;2022-07-23T04:00:38;100825.28;;;18.62;80.92
71643;BME280;59438;45.014;39.006;2022-07-23T04:03:04;100817.81;;;18.67;81.07
71643;BME280;59438;45.014;39.006;2022-07-23T04:05:31;100815.81;;;18.71;80.85
71643;BME280;59438;45.014;39.006;2022-07-23T04:07:57;100818.03;;;18.77;80.99
71643;BME280;59438;45.014;39.006;2022-07-23T04:10:23;100822.13;;;18.83;80.68
71643;BME280;59438;45.014;39.006;2022-07-23T04:12:50;100822.63;;;18.88;80.62
71643;BME280;59438;45.014;39.006;2022-07-23T04:15:18;100826.47;;;18.97;81.09
71643;BME280;59438;45.014;39.006;2022-07-23T04:17:44;100817.19;;;19.02;80.55
71643;BME280;59438;45.014;39.006;2022-07-23T04:20:11;100807.81;;;19.09;80.59
71643;BME280;59438;45.014;39.006;2022-07-23T04:22:37;100814.41;;;19.17;80.45
71643;BME280;59438;45.014;39.006;2022-07-23T04:25:04;100813.97;;;19.23;80.08
71643;BME280;59438;45.014;39.006;2022-07-23T04:27:31;100816.19;;;19.29;80.21
71643;BME280;59438;45.014;39.006;2022-07-23T04:29:57;100822.78;;;19.36;80.14
71643;BME280;59438;45.014;39.006;2022-07-23T04:32:25;100818.84;;;19.42;80.23
71643;BME280;59438;45.014;39.006;2022-07-23T04:34:51;100818.16;;;19.51;79.99
71643;BME280;59438;45.014;39.006;2022-07-23T04:37:17;100817.72;;;19.57;79.89
71643;BME280;59438;45.014;39.006;2022-07-23T04:39:44;100817.66;;;19.70;79.91
71643;BME280;59438;45.014;39.006;2022-07-23T04:42:10;100813.38;;;19.80;79.55
71643;BME280;59438;45.014;39.006;2022-07-23T04:44:36;100810.53;;;19.95;79.19
71643;BME280;59438;45.014;39.006;2022-07-23T04:47:03;100820.28;;;20.07;78.61
71643;BME280;59438;45.014;39.006;2022-07-23T04:49:30;100826.50;;;20.19;78.71
71643;BME280;59438;45.014;39.006;2022-07-23T04:51:57;100826.44;;;20.31;78.61
71643;BME280;59438;45.014;39.006;2022-07-23T04:54:23;100828.16;;;20.44;78.20
71643;BME280;59438;45.014;39.006;2022-07-23T04:56:49;100828.31;;;20.53;77.46
71643;BME280;59438;45.014;39.006;2022-07-23T04:59:16;100832.94;;;20.63;77.44
71643;BME280;59438;45.014;39.006;2022-07-23T05:01:42;100835.16;;;20.69;77.28
71643;BME280;59438;45.014;39.006;2022-07-23T05:04:08;100829.69;;;20.70;76.90
71643;BME280;59438;45.014;39.006;2022-07-23T05:06:36;100832.72;;;20.77;76.09
71643;BME280;59438;45.014;39.006;2022-07-23T05:09:03;100841.34;;;20.81;75.61
71643;BME280;59438;45.014;39.006;2022-07-23T05:11:29;100832.41;;;20.82;75.37
71643;BME280;59438;45.014;39.006;2022-07-23T05:13:55;100838.47;;;20.84;75.56
71643;BME280;59438;45.014;39.006;2022-07-23T05:16:22;100832.66;;;20.90;75.59
71643;BME280;59438;45.014;39.006;2022-07-23T05:18:48;100837.34;;;20.98;75.18
71643;BME280;59438;45.014;39.006;2022-07-23T05:21:14;100828.97;;;21.02;74.57
71643;BME280;59438;45.014;39.006;2022-07-23T05:23:42;100837.50;;;21.07;74.45
71643;BME280;59438;45.014;39.006;2022-07-23T05:26:09;100834.56;;;21.10;74.51
71643;BME280;59438;45.014;39.006;2022-07-23T05:28:35;100833.59;;;21.11;74.22
71643;BME280;59438;45.014;39.006;2022-07-23T05:31:01;100838.69;;;21.14;74.21
71643;BME280;59438;45.014;39.006;2022-07-23T05:33:28;100825.84;;;21.20;74.25
71643;BME280;59438;45.014;39.006;2022-07-23T05:35:54;100830.69;;;21.26;74.07
71643;BME280;59438;45.014;39.006;2022-07-23T05:38:25;100824.59;;;21.35;73.57
71643;BME280;59438;45.014;39.006;2022-07-23T05:40:53;100821.94;;;21.46;73.53
71643;BME280;59438;45.014;39.006;2022-07-23T05:43:20;100824.50;;;21.80;73.58
71643;BME280;59438;45.014;39.006;2022-07-23T05:45:46;100830.63;;;22.78;71.19
71643;BME280;59438;45.014;39.006;2022-07-23T05:48:12;100839.84;;;23.76;69.23
71643;BME280;59438;45.014;39.006;2022-07-23T05:50:39;100838.59;;;24.48;66.43
71643;BME280;59438;45.014;39.006;2022-07-23T05:53:05;100843.25;;;24.75;64.78
71643;BME280;59438;45.014;39.006;2022-07-23T05:55:31;100834.63;;;24.71;64.92
71643;BME280;59438;45.014;39.006;2022-07-23T05:57:59;100833.50;;;25.02;63.35
71643;BME280;59438;45.014;39.006;2022-07-23T06:00:27;100829.38;;;25.17;63.03
71643;BME280;59438;45.014;39.006;2022-07-23T06:02:53;100842.19;;;25.33;62.44
71643;BME280;59438;45.014;39.006;2022-07-23T06:05:19;100827.19;;;25.30;62.86
71643;BME280;59438;45.014;39.006;2022-07-23T06:07:46;100815.81;;;25.09;62.07
71643;BME280;59438;45.014;39.006;2022-07-23T06:10:12;100818.50;;;24.71;63.21
71643;BME280;59438;45.014;39.006;2022-07-23T06:12:39;100834.66;;;24.32;63.81
71643;BME280;59438;45.014;39.006;2022-07-23T06:15:08;100825.38;;;23.98;64.09
71643;BME280;59438;45.014;39.006;2022-07-23T06:17:35;100814.16;;;23.73;65.73
71643;BME280;59438;45.014;39.006;2022-07-23T06:20:01;100806.09;;;23.53;66.02
71643;BME280;59438;45.014;39.006;2022-07-23T06:22:27;100803.94;;;23.38;66.98
71643;BME280;59438;45.014;39.006;2022-07-23T06:24:54;100802.63;;;23.22;67.00
71643;BME280;59438;45.014;39.006;2022-07-23T06:27:20;100800.47;;;23.06;67.37
71643;BME280;59438;45.014;39.006;2022-07-23T06:29:46;100801.78;;;22.91;67.73
71643;BME280;59438;45.014;39.006;2022-07-23T06:32:14;100804.81;;;22.77;68.10
71643;BME280;59438;45.014;39.006;2022-07-23T06:34:40;100809.56;;;22.63;68.25
71643;BME280;59438;45.014;39.006;2022-07-23T06:37:07;100808.50;;;22.54;68.70
71643;BME280;59438;45.014;39.006;2022-07-23T06:39:33;100805.78;;;22.45;69.07
71643;BME280;59438;45.014;39.006;2022-07-23T06:41:59;100808.06;;;22.49;69.00
71643;BME280;59438;45.014;39.006;2022-07-23T06:44:26;100810.44;;;22.52;68.15
71643;BME280;59438;45.014;39.006;2022-07-23T06:46:53;100796.34;;;22.50;67.47
71643;BME280;59438;45.014;39.006;2022-07-23T06:49:20;100804.91;;;22.44;66.85
71643;BME280;59438;45.014;39.006;2022-07-23T06:51:47;100806.16;;;22.40;67.25
71643;BME280;59438;45.014;39.006;2022-07-23T06:54:13;100808.25;;;22.37;67.83
71643;BME280;59438;45.014;39.006;2022-07-23T06:56:39;100817.13;;;22.37;67.71
71643;BME280;59438;45.014;39.006;2022-07-23T06:59:06;100818.09;;;22.36;67.72
71643;BME280;59438;45.014;39.006;2022-07-23T07:01:32;100820.91;;;22.35;67.70
71643;BME280;59438;45.014;39.006;2022-07-23T07:03:58;100819.50;;;22.30;68.25
71643;BME280;59438;45.014;39.006;2022-07-23T07:06:26;100828.75;;;22.26;67.80
71643;BME280;59438;45.014;39.006;2022-07-23T07:08:53;100832.53;;;22.24;67.74
71643;BME280;59438;45.014;39.006;2022-07-23T07:11:19;100828.50;;;22.18;67.74
71643;BME280;59438;45.014;39.006;2022-07-23T07:16:11;100830.59;;;22.14;67.99
71643;BME280;59438;45.014;39.006;2022-07-23T07:18:37;100829.13;;;22.22;68.16
71643;BME280;59438;45.014;39.006;2022-07-23T07:21:04;100840.50;;;22.35;67.63
71643;BME280;59438;45.014;39.006;2022-07-23T07:23:32;100829.72;;;22.46;67.13
71643;BME280;59438;45.014;39.006;2022-07-23T07:25:58;100810.78;;;22.59;66.96
71643;BME280;59438;45.014;39.006;2022-07-23T07:28:24;100814.09;;;22.72;66.77
71643;BME280;59438;45.014;39.006;2022-07-23T07:30:51;100812.44;;;22.81;65.52
71643;BME280;59438;45.014;39.006;2022-07-23T07:33:17;100812.72;;;22.78;64.77
71643;BME280;59438;45.014;39.006;2022-07-23T07:35:44;100827.94;;;22.78;64.86
71643;BME280;59438;45.014;39.006;2022-07-23T07:38:10;100830.28;;;22.71;64.92
71643;BME280;59438;45.014;39.006;2022-07-23T07:40:38;100829.56;;;22.69;64.56
71643;BME280;59438;45.014;39.006;2022-07-23T07:43:04;100835.78;;;22.69;65.01
71643;BME280;59438;45.014;39.006;2022-07-23T07:45:31;100830.75;;;22.76;64.95
71643;BME280;59438;45.014;39.006;2022-07-23T07:47:57;100831.06;;;22.83;64.59
71643;BME280;59438;45.014;39.006;2022-07-23T07:50:24;100819.81;;;22.89;64.83
71643;BME280;59438;45.014;39.006;2022-07-23T07:52:50;100826.19;;;22.98;64.53
71643;BME280;59438;45.014;39.006;2022-07-23T07:55:17;100818.34;;;23.06;63.67
71643;BME280;59438;45.014;39.006;2022-07-23T07:57:45;100814.03;;;23.15;63.34
71643;BME280;59438;45.014;39.006;2022-07-23T08:00:12;100817.88;;;23.22;62.67
71643;BME280;59438;45.014;39.006;2022-07-23T08:02:43;100809.56;;;23.25;61.68
71643;BME280;59438;45.014;39.006;2022-07-23T08:05:09;100811.16;;;23.37;62.58
71643;BME280;59438;45.014;39.006;2022-07-23T08:07:36;100814.97;;;23.44;62.77
71643;BME280;59438;45.014;39.006;2022-07-23T08:10:03;100809.59;;;23.44;61.93
71643;BME280;59438;45.014;39.006;2022-07-23T08:12:38;100818.09;;;23.49;61.79
71643;BME280;59438;45.014;39.006;2022-07-23T08:15:07;100822.75;;;23.57;61.07
71643;BME280;59438;45.014;39.006;2022-07-23T08:17:33;100810.31;;;23.66;62.15
71643;BME280;59438;45.014;39.006;2022-07-23T08:20:00;100834.38;;;23.77;61.62
71643;BME280;59438;45.014;39.006;2022-07-23T08:22:41;100819.00;;;23.89;60.86
71643;BME280;59438;45.014;39.006;2022-07-23T08:25:08;100820.00;;;23.98;61.10
71643;BME280;59438;45.014;39.006;2022-07-23T08:27:35;100819.44;;;24.04;61.00
71643;BME280;59438;45.014;39.006;2022-07-23T08:30:01;100817.47;;;24.06;61.00
71643;BME280;59438;45.014;39.006;2022-07-23T08:32:29;100819.44;;;24.04;60.04
71643;BME280;59438;45.014;39.006;2022-07-23T08:34:56;100822.13;;;24.04;59.84
71643;BME280;59438;45.014;39.006;2022-07-23T08:37:22;100839.19;;;24.03;59.17
71643;BME280;59438;45.014;39.006;2022-07-23T08:39:48;100824.81;;;24.04;58.96
71643;BME280;59438;45.014;39.006;2022-07-23T08:42:15;100824.94;;;24.02;56.93
71643;BME280;59438;45.014;39.006;2022-07-23T08:44:44;100833.28;;;23.99;56.06
71643;BME280;59438;45.014;39.006;2022-07-23T08:47:12;100832.84;;;24.04;57.68
71643;BME280;59438;45.014;39.006;2022-07-23T08:49:40;100833.56;;;24.06;56.76
71643;BME280;59438;45.014;39.006;2022-07-23T08:52:07;100830.44;;;24.10;56.55
71643;BME280;59438;45.014;39.006;2022-07-23T08:54:34;100820.53;;;24.11;56.59
71643;BME280;59438;45.014;39.006;2022-07-23T08:57:01;100833.25;;;24.09;56.59
71643;BME280;59438;45.014;39.006;2022-07-23T08:59:27;100828.91;;;24.08;55.80
71643;BME280;59438;45.014;39.006;2022-07-23T09:01:54;100818.88;;;24.10;55.74
71643;BME280;59438;45.014;39.006;2022-07-23T09:04:21;100834.66;;;24.13;55.84
71643;BME280;59438;45.014;39.006;2022-07-23T09:06:49;100816.31;;;24.18;55.37
71643;BME280;59438;45.014;39.006;2022-07-23T09:09:19;100834.94;;;24.29;54.74
71643;BME280;59438;45.014;39.006;2022-07-23T09:11:45;100830.41;;;24.40;56.70
71643;BME280;59438;45.014;39.006;2022-07-23T09:14:12;100833.41;;;24.37;55.21
71643;BME280;59438;45.014;39.006;2022-07-23T09:16:38;100828.16;;;24.35;54.81
71643;BME280;59438;45.014;39.006;2022-07-23T09:19:06;100827.19;;;24.36;54.91
71643;BME280;59438;45.014;39.006;2022-07-23T09:21:33;100816.28;;;24.38;54.71
71643;BME280;59438;45.014;39.006;2022-07-23T09:24:02;100816.16;;;24.39;54.24
71643;BME280;59438;45.014;39.006;2022-07-23T09:26:32;100823.34;;;24.39;53.68
71643;BME280;59438;45.014;39.006;2022-07-23T09:29:04;100816.59;;;24.34;53.72
71643;BME280;59438;45.014;39.006;2022-07-23T09:31:33;100822.78;;;24.35;54.01
71643;BME280;59438;45.014;39.006;2022-07-23T09:34:11;100820.41;;;24.32;53.28
71643;BME280;59438;45.014;39.006;2022-07-23T09:36:38;100846.25;;;24.33;54.31
71643;BME280;59438;45.014;39.006;2022-07-23T09:39:06;100833.41;;;24.37;53.68
71643;BME280;59438;45.014;39.006;2022-07-23T09:41:38;100836.22;;;24.35;52.96
71643;BME280;59438;45.014;39.006;2022-07-23T09:44:13;100843.28;;;24.36;52.49
71643;BME280;59438;45.014;39.006;2022-07-23T09:46:40;100859.09;;;24.39;53.61
71643;BME280;59438;45.014;39.006;2022-07-23T09:49:14;100833.53;;;24.45;52.64
71643;BME280;59438;45.014;39.006;2022-07-23T09:51:48;100839.59;;;24.47;53.14
71643;BME280;59438;45.014;39.006;2022-07-23T09:54:28;100835.53;;;24.52;53.07
71643;BME280;59438;45.014;39.006;2022-07-23T09:56:56;100836.06;;;24.56;52.94
71643;BME280;59438;45.014;39.006;2022-07-23T09:59:24;100853.59;;;24.60;52.62
71643;BME280;59438;45.014;39.006;2022-07-23T10:01:52;100838.03;;;24.64;52.60
71643;BME280;59438;45.014;39.006;2022-07-23T10:04:19;100863.47;;;24.69;52.88
71643;BME280;59438;45.014;39.006;2022-07-23T10:06:47;100850.19;;;24.68;51.98
71643;BME280;59438;45.014;39.006;2022-07-23T10:09:16;100839.63;;;24.57;51.08
71643;BME280;59438;45.014;39.006;2022-07-23T10:11:50;100862.91;;;24.56;51.44
71643;BME280;59438;45.014;39.006;2022-07-23T10:14:38;100848.22;;;24.60;51.77
71643;BME280;59438;45.014;39.006;2022-07-23T10:17:04;100856.69;;;24.65;51.41
71643;BME280;59438;45.014;39.006;2022-07-23T10:19:31;100864.44;;;24.68;51.86
71643;BME280;59438;45.014;39.006;2022-07-23T10:22:00;100858.94;;;24.70;50.74
71643;BME280;59438;45.014;39.006;2022-07-23T10:24:56;100866.84;;;24.71;51.45
71643;BME280;59438;45.014;39.006;2022-07-23T10:27:56;100858.94;;;24.70;51.69
71643;BME280;59438;45.014;39.006;2022-07-23T10:30:31;100859.94;;;24.69;50.97
71643;BME280;59438;45.014;39.006;2022-07-23T10:33:29;100867.00;;;24.70;51.00
71643;BME280;59438;45.014;39.006;2022-07-23T10:36:02;100870.41;;;24.62;50.47
71643;BME280;59438;45.014;39.006;2022-07-23T10:38:32;100866.59;;;24.55;50.28
71643;BME280;59438;45.014;39.006;2022-07-23T10:41:03;100878.31;;;24.44;50.34
71643;BME280;59438;45.014;39.006;2022-07-23T10:43:32;100872.25;;;24.32;50.64
71643;BME280;59438;45.014;39.006;2022-07-23T10:46:23;100871.94;;;24.36;50.97
71643;BME280;59438;45.014;39.006;2022-07-23T10:49:23;100870.41;;;24.43;51.06
71643;BME280;59438;45.014;39.006;2022-07-23T10:57:58;100874.66;;;24.65;50.62
71643;BME280;59438;45.014;39.006;2022-07-23T11:00:27;100879.84;;;24.66;50.54
71643;BME280;59438;45.014;39.006;2022-07-23T11:02:56;100878.75;;;24.69;50.84
71643;BME280;59438;45.014;39.006;2022-07-23T11:05:23;100881.56;;;24.67;51.11
71643;BME280;59438;45.014;39.006;2022-07-23T11:10:49;100877.88;;;24.68;51.04
71643;BME280;59438;45.014;39.006;2022-07-23T11:13:30;100878.44;;;24.72;51.07
71643;BME280;59438;45.014;39.006;2022-07-23T11:16:23;100893.00;;;24.79;50.41
71643;BME280;59438;45.014;39.006;2022-07-23T11:19:09;100883.94;;;24.80;50.75
71643;BME280;59438;45.014;39.006;2022-07-23T11:21:42;100881.81;;;24.84;50.36
71643;BME280;59438;45.014;39.006;2022-07-23T11:24:11;100892.69;;;24.92;50.61
71643;BME280;59438;45.014;39.006;2022-07-23T11:26:45;100871.59;;;24.97;50.56
71643;BME280;59438;45.014;39.006;2022-07-23T11:29:44;100895.00;;;25.14;50.26
71643;BME280;59438;45.014;39.006;2022-07-23T11:32:29;100894.47;;;25.21;50.04
71643;BME280;59438;45.014;39.006;2022-07-23T11:34:56;100890.75;;;25.22;49.44
71643;BME280;59438;45.014;39.006;2022-07-23T11:37:33;100890.16;;;25.28;49.27
71643;BME280;59438;45.014;39.006;2022-07-23T11:40:00;100883.22;;;25.35;49.76
71643;BME280;59438;45.014;39.006;2022-07-23T11:42:27;100895.47;;;25.47;49.77
71643;BME280;59438;45.014;39.006;2022-07-23T11:44:55;100890.19;;;25.56;50.09
71643;BME280;59438;45.014;39.006;2022-07-23T11:47:24;100896.97;;;25.60;48.79
71643;BME280;59438;45.014;39.006;2022-07-23T11:49:55;100889.75;;;25.60;47.74
71643;BME280;59438;45.014;39.006;2022-07-23T11:52:22;100881.53;;;25.62;48.57
71643;BME280;59438;45.014;39.006;2022-07-23T11:54:51;100904.97;;;25.69;48.30
71643;BME280;59438;45.014;39.006;2022-07-23T11:57:19;100918.03;;;25.64;48.42
71643;BME280;59438;45.014;39.006;2022-07-23T11:59:46;100916.38;;;25.53;48.56
71643;BME280;59438;45.014;39.006;2022-07-23T12:02:13;100914.09;;;25.31;49.32
71643;BME280;59438;45.014;39.006;2022-07-23T12:04:44;100914.81;;;25.13;49.36
71643;BME280;59438;45.014;39.006;2022-07-23T12:07:33;100919.09;;;25.06;49.99
71643;BME280;59438;45.014;39.006;2022-07-23T12:10:04;100923.34;;;24.99;50.20
71643;BME280;59438;45.014;39.006;2022-07-23T12:12:35;100923.59;;;25.06;51.38
71643;BME280;59438;45.014;39.006;2022-07-23T12:15:01;100918.22;;;25.06;50.06
71643;BME280;59438;45.014;39.006;2022-07-23T12:17:30;100918.50;;;25.12;50.19
71643;BME280;59438;45.014;39.006;2022-07-23T12:19:59;100918.66;;;25.21;50.22
71643;BME280;59438;45.014;39.006;2022-07-23T12:22:26;100912.50;;;25.28;50.36
71643;BME280;59438;45.014;39.006;2022-07-23T12:25:00;100927.22;;;25.34;49.86
71643;BME280;59438;45.014;39.006;2022-07-23T12:27:27;100911.09;;;25.34;49.84
71643;BME280;59438;45.014;39.006;2022-07-23T12:29:53;100905.44;;;25.37;49.25
71643;BME280;59438;45.014;39.006;2022-07-23T12:32:22;100916.56;;;25.42;49.04
71643;BME280;59438;45.014;39.006;2022-07-23T12:34:50;100913.59;;;25.45;48.74
71643;BME280;59438;45.014;39.006;2022-07-23T12:37:30;100936.50;;;25.49;48.10
71643;BME280;59438;45.014;39.006;2022-07-23T12:39:57;100910.91;;;25.45;48.38
71643;BME280;59438;45.014;39.006;2022-07-23T12:42:23;100915.41;;;25.45;48.87
71643;BME280;59438;45.014;39.006;2022-07-23T12:45:10;100921.66;;;25.45;48.10
71643;BME280;59438;45.014;39.006;2022-07-23T12:50:35;100914.22;;;25.29;47.98
71643;BME280;59438;45.014;39.006;2022-07-23T12:53:05;100934.88;;;25.19;47.81
71643;BME280;59438;45.014;39.006;2022-07-23T12:55:32;100918.22;;;25.06;48.30
71643;BME280;59438;45.014;39.006;2022-07-23T12:58:10;100920.50;;;25.01;47.96
71643;BME280;59438;45.014;39.006;2022-07-23T13:01:01;100935.38;;;24.95;49.07